Basinger, Florida
Current Conditions -  °F | °C
As of 4:53 AM on Sunday 26 Oct 2014 (Local Time) from KVRB Reporting Station
Clear Clear  
Wind Chill: 61°   Ceiling: Unl
Heat Index: 61°   Visibility: 10mi
Dew Point: 57°   Wind: 7mph
Humidity: 87%   Direction: 320°NW
Pressure: 29.93"   Gusts: NA
Location:  27.4513°N, 80.9004°W
Report Text: KVRB 260853Z AUTO 32006KT 10SM CLR 16/14 A2993 RMK AO2 SLP133 T01610139 55009 $
Loading
Personal Weather Stations






























Interactive Weather Map
Tropical Storm Tracking
New forecast layout! Learn more

10-Day Weather Forecast

Advertisements
Track Severe Weather on mobile